Time;durP1;ratioP1;P1;durP2;ratioP2;P2;SDS_P1;SDS_P2;PMS_P1;PMS_P2;Temp;Humidity;BMP_temperature;BMP_pressure;BME280_temperature;BME280_humidity;BME280_pressure;Samples;Min_cycle;Max_cycle;Signal;HPM_P1;HPM_P2
2022/01/29 00:00:47;;;;;;;58.90;27.58;;;8.10;99.90;;;;;;7338412;19;115262;-83
2022/01/29 00:03:14;;;;;;;58.70;28.77;;;8.10;99.90;;;;;;7340200;19;110528;-82
2022/01/29 00:05:41;;;;;;;60.45;28.00;;;8.10;99.90;;;;;;7338767;19;112018;-83
2022/01/29 00:08:08;;;;;;;60.45;28.33;;;8.00;99.90;;;;;;7341277;19;111879;-84
2022/01/29 00:10:36;;;;;;;55.30;27.20;;;8.10;99.90;;;;;;7343072;19;114612;-83
2022/01/29 00:13:03;;;;;;;53.80;27.88;;;8.10;99.90;;;;;;7341789;19;112513;-83
2022/01/29 00:15:30;;;;;;;58.47;27.33;;;8.10;99.90;;;;;;7339732;19;114562;-82
2022/01/29 00:17:57;;;;;;;54.50;27.30;;;8.10;99.90;;;;;;7340535;19;110631;-82
2022/01/29 00:20:24;;;;;;;55.25;28.00;;;8.20;99.90;;;;;;7341064;19;112767;-83
2022/01/29 00:22:51;;;;;;;54.70;27.95;;;8.10;99.90;;;;;;7339770;19;112106;-83
2022/01/29 00:25:18;;;;;;;55.10;27.95;;;8.10;99.90;;;;;;7342625;19;112450;-83
2022/01/29 00:27:45;;;;;;;64.63;29.05;;;8.10;99.90;;;;;;7338192;19;114836;-83
2022/01/29 00:30:17;;;;;;;60.17;27.85;;;8.10;99.90;;;;;;7341538;19;112242;-83
2022/01/29 00:32:44;;;;;;;66.75;30.00;;;8.10;99.90;;;;;;7342092;19;114895;-83
2022/01/29 00:35:11;;;;;;;52.53;27.13;;;8.10;99.90;;;;;;7340794;19;111232;-83
2022/01/29 00:37:38;;;;;;;58.13;28.25;;;8.10;99.90;;;;;;7339463;19;112225;-83
2022/01/29 00:40:06;;;;;;;59.45;27.35;;;8.10;99.90;;;;;;7337496;19;115021;-83
2022/01/29 00:42:32;;;;;;;64.43;28.13;;;8.10;99.90;;;;;;7342130;19;111976;-83
2022/01/29 00:44:59;;;;;;;60.90;27.45;;;8.10;99.90;;;;;;7337611;19;112006;-83
2022/01/29 00:47:26;;;;;;;59.00;26.98;;;8.20;99.90;;;;;;7341227;19;112661;-83
2022/01/29 00:49:53;;;;;;;;;;;8.20;99.90;;;;;;7338573;19;112133;-82
2022/01/29 00:52:20;;;;;;;56.25;28.02;;;8.10;99.90;;;;;;7345697;19;115330;-82
2022/01/29 00:54:47;;;;;;;62.67;27.35;;;8.10;99.90;;;;;;7342367;19;112450;-82
2022/01/29 00:57:14;;;;;;;58.22;28.25;;;8.10;99.90;;;;;;7340631;19;112731;-82
2022/01/29 00:59:41;;;;;;;64.93;30.38;;;8.10;99.90;;;;;;7336398;19;112636;-82
2022/01/29 01:02:09;;;;;;;71.38;29.80;;;8.10;99.90;;;;;;7337349;19;110745;-83
2022/01/29 01:04:39;;;;;;;70.43;29.88;;;8.10;99.90;;;;;;7336224;19;111246;-82
2022/01/29 01:07:08;;;;;;;66.70;29.08;;;8.10;99.90;;;;;;7337073;19;112478;-83
2022/01/29 01:09:36;;;;;;;74.20;31.25;;;8.00;99.90;;;;;;7338801;19;112376;-82
2022/01/29 01:12:04;;;;;;;70.40;31.25;;;8.10;99.90;;;;;;7337766;19;114882;-82
2022/01/29 01:14:34;;;;;;;64.95;28.60;;;8.10;99.90;;;;;;7344115;19;115497;-82
2022/01/29 01:17:03;;;;;;;66.30;30.77;;;8.10;99.90;;;;;;7338145;19;112671;-84
2022/01/29 01:19:30;;;;;;;69.03;28.90;;;8.10;99.90;;;;;;7337437;19;115244;-83
2022/01/29 01:21:57;;;;;;;70.05;29.63;;;8.10;99.90;;;;;;7338765;19;111850;-83
2022/01/29 01:24:24;;;;;;;65.05;29.13;;;8.10;99.90;;;;;;7338697;19;111171;-83
2022/01/29 01:26:51;;;;;;;74.85;30.02;;;8.10;99.90;;;;;;7339351;19;112745;-84
2022/01/29 01:29:19;;;;;;;68.68;30.73;;;8.10;99.90;;;;;;7337495;19;111779;-84
2022/01/29 01:31:46;;;;;;;72.47;30.85;;;8.10;99.90;;;;;;7339364;19;113772;-82
2022/01/29 01:34:14;;;;;;;74.25;30.65;;;8.00;99.90;;;;;;7336541;19;112783;-83
2022/01/29 01:36:51;;;;;;;68.40;30.23;;;8.10;99.90;;;;;;7344072;19;112868;-84
2022/01/29 01:39:22;;;;;;;71.20;31.38;;;8.00;99.90;;;;;;7335178;19;111996;-84
2022/01/29 01:41:54;;;;;;;71.13;30.38;;;8.00;99.90;;;;;;7338001;19;112105;-84
2022/01/29 01:44:21;;;;;;;71.18;29.42;;;8.00;99.90;;;;;;7336029;19;112098;-84
2022/01/29 01:46:49;;;;;;;72.20;31.15;;;8.00;99.90;;;;;;7336109;19;113647;-84
2022/01/29 01:49:16;;;;;;;76.88;31.15;;;8.00;99.90;;;;;;7337939;19;112203;-84
2022/01/29 01:51:43;;;;;;;;;;;8.00;99.90;;;;;;7337983;19;112364;-83
2022/01/29 01:54:10;;;;;;;70.43;29.20;;;8.00;99.90;;;;;;7343307;19;110927;-84
2022/01/29 01:56:37;;;;;;;74.38;30.23;;;7.90;99.90;;;;;;7334886;19;114778;-83
2022/01/29 01:59:04;;;;;;;73.55;30.50;;;8.00;99.90;;;;;;7342939;19;115488;-84
2022/01/29 02:01:31;;;;;;;80.82;32.47;;;8.00;99.90;;;;;;7335313;19;112712;-84
2022/01/29 02:03:59;;;;;;;79.45;31.35;;;7.90;99.90;;;;;;7338915;19;112852;-83
2022/01/29 02:06:26;;;;;;;74.95;31.23;;;8.00;99.90;;;;;;7334619;19;112950;-84
2022/01/29 02:08:59;;;;;;;82.38;32.85;;;8.00;99.90;;;;;;7337726;19;110627;-83
2022/01/29 02:11:28;;;;;;;77.68;31.02;;;7.90;99.90;;;;;;7337677;19;115341;-83
2022/01/29 02:14:00;;;;;;;74.00;30.17;;;7.90;99.90;;;;;;7334506;19;112661;-83
2022/01/29 02:16:28;;;;;;;85.03;32.70;;;7.90;99.90;;;;;;7337370;19;112253;-82
2022/01/29 02:18:55;;;;;;;78.78;30.00;;;7.90;99.90;;;;;;7335443;19;111354;-83
2022/01/29 02:21:27;;;;;;;78.80;30.92;;;8.00;99.90;;;;;;7341948;19;112835;-82
2022/01/29 02:23:54;;;;;;;81.43;31.35;;;7.90;99.90;;;;;;7341073;19;111891;-83
2022/01/29 02:26:21;;;;;;;70.93;29.75;;;8.00;99.90;;;;;;7342284;19;113576;-83
2022/01/29 02:28:48;;;;;;;71.53;29.38;;;8.00;99.90;;;;;;7340630;19;114089;-82
2022/01/29 02:31:15;;;;;;;74.72;28.58;;;8.00;99.90;;;;;;7340989;19;112520;-83
2022/01/29 02:33:44;;;;;;;73.47;30.42;;;8.00;99.90;;;;;;7344335;19;113202;-82
2022/01/29 02:36:11;;;;;;;70.40;28.88;;;8.10;99.90;;;;;;7340270;19;112617;-83
2022/01/29 02:38:38;;;;;;;74.63;28.75;;;8.00;99.90;;;;;;7345053;19;113715;-83
2022/01/29 02:41:06;;;;;;;75.72;29.63;;;8.00;99.90;;;;;;7340981;19;111118;-83
2022/01/29 02:43:45;;;;;;;71.40;28.60;;;8.00;99.90;;;;;;7349365;19;111169;-83
2022/01/29 02:48:51;;;;;;;75.50;30.00;;;8.00;99.90;;;;;;7343699;19;114774;-83
2022/01/29 02:51:18;;;;;;;69.22;27.73;;;8.10;99.90;;;;;;7345334;19;114011;-83
2022/01/29 02:53:46;;;;;;;72.40;28.10;;;8.10;99.90;;;;;;7340832;19;112887;-83
2022/01/29 02:56:14;;;;;;;72.20;28.73;;;8.10;99.90;;;;;;7342573;19;114777;-83
2022/01/29 02:58:42;;;;;;;79.00;29.27;;;8.10;99.90;;;;;;7339928;19;110785;-83
2022/01/29 03:01:09;;;;;;;70.57;27.60;;;8.10;99.90;;;;;;7343943;19;112395;-83
2022/01/29 03:03:36;;;;;;;68.00;27.17;;;8.10;99.90;;;;;;7340738;19;115090;-83
2022/01/29 03:06:08;;;;;;;70.10;26.83;;;8.10;99.90;;;;;;7345902;19;110788;-83
2022/01/29 03:08:37;;;;;;;66.57;26.35;;;8.20;99.90;;;;;;7342155;19;110416;-83
2022/01/29 03:11:05;;;;;;;71.57;27.85;;;8.20;99.90;;;;;;7340683;19;110822;-84
2022/01/29 03:13:32;;;;;;;69.72;26.30;;;8.20;99.90;;;;;;7344668;19;114646;-83
2022/01/29 03:15:59;;;;;;;61.25;26.08;;;8.20;99.90;;;;;;7338739;19;112063;-83
2022/01/29 03:18:26;;;;;;;58.88;24.75;;;8.20;99.90;;;;;;7341784;19;117013;-83
2022/01/29 03:20:53;;;;;;;60.80;25.30;;;8.20;99.90;;;;;;7339175;19;111395;-83
2022/01/29 03:23:21;;;;;;;62.97;26.10;;;8.20;99.90;;;;;;7341236;19;115291;-83
2022/01/29 03:25:48;;;;;;;67.70;25.88;;;8.20;99.90;;;;;;7348427;19;112517;-84
2022/01/29 03:28:15;;;;;;;62.50;23.95;;;8.20;99.90;;;;;;7338058;19;110774;-83
2022/01/29 03:30:42;;;;;;;57.40;24.17;;;8.30;99.90;;;;;;7342600;19;111621;-83
2022/01/29 03:33:09;;;;;;;65.15;23.08;;;8.30;99.90;;;;;;7340665;19;112519;-84
2022/01/29 03:35:36;;;;;;;55.33;23.65;;;8.30;99.90;;;;;;7341237;19;112294;-84
2022/01/29 03:38:04;;;;;;;56.83;23.77;;;8.30;99.90;;;;;;7340184;19;114783;-84
2022/01/29 03:40:32;;;;;;;59.63;24.30;;;8.30;99.90;;;;;;7341454;19;113813;-83
2022/01/29 03:43:08;;;;;;;59.17;23.30;;;8.30;99.90;;;;;;7343579;19;113950;-84
2022/01/29 03:45:35;;;;;;;57.53;23.15;;;8.30;99.90;;;;;;7342062;19;111078;-84
2022/01/29 03:48:03;;;;;;;57.28;22.63;;;8.30;99.90;;;;;;7348493;19;114500;-84
2022/01/29 03:50:30;;;;;;;49.17;21.17;;;8.40;99.90;;;;;;7340215;19;110856;-83
2022/01/29 03:52:57;;;;;;;52.45;22.30;;;8.40;99.90;;;;;;7341680;19;111744;-84
2022/01/29 03:55:24;;;;;;;52.45;22.05;;;8.40;99.90;;;;;;7338674;19;112366;-83
2022/01/29 03:57:51;;;;;;;49.72;21.40;;;8.40;99.90;;;;;;7342026;19;112453;-84
2022/01/29 04:00:18;;;;;;;53.40;21.70;;;8.40;99.90;;;;;;7337632;19;112398;-84
2022/01/29 04:02:45;;;;;;;51.75;21.35;;;8.40;99.90;;;;;;7342327;19;110620;-84
2022/01/29 04:05:13;;;;;;;50.00;21.23;;;8.40;99.90;;;;;;7339897;19;115066;-83
2022/01/29 04:07:41;;;;;;;55.08;22.58;;;8.40;99.90;;;;;;7342079;19;116701;-83
2022/01/29 04:10:08;;;;;;;50.85;21.90;;;8.50;99.90;;;;;;7348315;19;112273;-84
2022/01/29 04:12:41;;;;;;;52.15;22.17;;;8.50;99.90;;;;;;7340433;19;115711;-84
2022/01/29 04:15:09;;;;;;;53.83;22.17;;;8.50;99.90;;;;;;7340790;19;113413;-84
2022/01/29 04:17:36;;;;;;;46.78;20.50;;;8.60;99.90;;;;;;7339454;19;111873;-83
2022/01/29 04:20:04;;;;;;;52.35;21.60;;;8.60;99.90;;;;;;7340760;19;116161;-84
2022/01/29 04:22:31;;;;;;;47.38;20.65;;;8.60;99.90;;;;;;7338502;19;113094;-83
2022/01/29 04:24:58;;;;;;;49.10;21.50;;;8.60;99.90;;;;;;7341572;19;112421;-84
2022/01/29 04:27:35;;;;;;;50.83;21.73;;;8.60;99.90;;;;;;7336910;19;110808;-83
2022/01/29 04:30:09;;;;;;;54.00;22.38;;;8.60;99.90;;;;;;7340782;19;112309;-84
2022/01/29 04:35:15;;;;;;;49.97;22.23;;;8.60;99.90;;;;;;7338749;19;112043;-83
2022/01/29 04:37:42;;;;;;;51.40;21.15;;;8.60;99.90;;;;;;7340979;19;113016;-83
2022/01/29 04:40:10;;;;;;;51.33;21.38;;;8.70;99.90;;;;;;7337196;19;111362;-84
2022/01/29 04:42:38;;;;;;;54.92;22.48;;;8.70;99.90;;;;;;7338640;19;111779;-83
2022/01/29 04:45:05;;;;;;;48.25;22.33;;;8.70;99.90;;;;;;7339555;19;115324;-84
2022/01/29 04:47:32;;;;;;;50.78;22.27;;;8.70;99.90;;;;;;7336898;19;113391;-84
2022/01/29 04:49:59;;;;;;;49.55;22.20;;;8.70;99.90;;;;;;7341030;19;111922;-83
2022/01/29 04:52:26;;;;;;;45.83;20.75;;;8.70;99.90;;;;;;7336893;19;110797;-83
2022/01/29 04:54:53;;;;;;;44.22;20.98;;;8.70;99.90;;;;;;7344293;19;110820;-84
2022/01/29 04:57:20;;;;;;;48.13;21.05;;;8.70;99.90;;;;;;7336691;19;115046;-84
2022/01/29 04:59:47;;;;;;;48.45;21.10;;;8.80;99.90;;;;;;7338746;19;114659;-84
2022/01/29 05:02:14;;;;;;;41.40;20.70;;;8.80;99.90;;;;;;7341622;19;110728;-84
2022/01/29 05:04:42;;;;;;;43.17;21.05;;;8.80;99.90;;;;;;7338220;19;110830;-84
2022/01/29 05:07:09;;;;;;;43.10;20.35;;;8.80;99.90;;;;;;7341175;19;111221;-84
2022/01/29 05:09:36;;;;;;;46.17;21.23;;;8.70;99.90;;;;;;7339064;19;115063;-85
2022/01/29 05:12:03;;;;;;;45.72;20.67;;;8.80;99.90;;;;;;7339507;19;111511;-84
2022/01/29 05:14:46;;;;;;;39.60;19.65;;;8.80;99.90;;;;;;7343118;19;112470;-85
2022/01/29 05:28:00;;;;;;;41.15;20.20;;;8.90;99.90;;;;;;7337420;19;113360;-85
2022/01/29 05:30:27;;;;;;;43.47;20.48;;;8.80;99.90;;;;;;7340634;19;114172;-84
2022/01/29 05:32:54;;;;;;;42.08;20.45;;;8.90;99.90;;;;;;7335752;19;116834;-84
2022/01/29 05:35:21;;;;;;;37.53;20.15;;;8.90;99.90;;;;;;7338431;19;115515;-85
2022/01/29 05:37:50;;;;;;;38.33;20.10;;;8.90;99.90;;;;;;7344011;19;116510;-84
2022/01/29 05:40:18;;;;;;;38.92;19.08;;;8.90;99.90;;;;;;7338923;19;112869;-85
2022/01/29 05:42:45;;;;;;;41.58;20.73;;;8.90;99.90;;;;;;7338754;19;114313;-84
2022/01/29 05:45:13;;;;;;;38.90;19.95;;;8.90;99.90;;;;;;7336417;19;111364;-84
2022/01/29 05:47:40;;;;;;;38.08;19.08;;;8.90;99.90;;;;;;7338874;19;115986;-84
2022/01/29 05:50:08;;;;;;;36.47;19.13;;;8.90;99.90;;;;;;7334954;19;112359;-85
2022/01/29 05:52:35;;;;;;;38.03;19.50;;;9.00;99.90;;;;;;7340176;19;114122;-83
2022/01/29 05:55:04;;;;;;;38.33;19.63;;;9.00;99.90;;;;;;7334760;19;112817;-83
2022/01/29 05:57:31;;;;;;;39.35;19.60;;;9.00;99.90;;;;;;7334742;19;112375;-85
2022/01/29 05:59:58;;;;;;;34.58;19.55;;;9.00;99.90;;;;;;7341217;19;112753;-83
2022/01/29 06:02:25;;;;;;;35.00;19.38;;;9.10;99.90;;;;;;7336148;19;111066;-86
2022/01/29 06:04:52;;;;;;;36.45;19.00;;;9.10;99.90;;;;;;7338095;19;111653;-84
2022/01/29 06:07:19;;;;;;;38.67;18.92;;;9.10;99.90;;;;;;7337544;19;115540;-84
2022/01/29 06:09:47;;;;;;;34.40;18.95;;;9.10;99.90;;;;;;7337417;19;111554;-85
2022/01/29 06:12:15;;;;;;;35.00;19.42;;;9.10;99.90;;;;;;7334566;19;112401;-84
2022/01/29 06:14:42;;;;;;;34.50;18.65;;;9.10;99.90;;;;;;7337151;19;116011;-84
2022/01/29 06:17:09;;;;;;;33.63;18.35;;;9.10;99.90;;;;;;7334157;19;112674;-83
2022/01/29 06:19:36;;;;;;;34.42;19.20;;;9.10;99.90;;;;;;7336897;19;112566;-84
2022/01/29 06:22:09;;;;;;;34.58;18.95;;;9.10;99.90;;;;;;7342882;19;113876;-84
2022/01/29 06:24:36;;;;;;;34.53;18.42;;;9.20;99.90;;;;;;7334417;19;114983;-84
2022/01/29 06:27:03;;;;;;;36.22;18.50;;;9.20;99.90;;;;;;7338493;19;111752;-84
2022/01/29 06:29:30;;;;;;;33.00;18.33;;;9.20;99.90;;;;;;7334448;19;112008;-84
2022/01/29 06:31:57;;;;;;;37.28;19.13;;;9.20;99.90;;;;;;7337784;19;110751;-84
2022/01/29 06:34:24;;;;;;;34.63;19.00;;;9.20;99.90;;;;;;7334830;19;115791;-83
2022/01/29 06:36:51;;;;;;;32.35;17.85;;;9.20;99.90;;;;;;7339109;19;113889;-84
2022/01/29 06:39:18;;;;;;;36.80;18.60;;;9.20;99.90;;;;;;7334351;19;114456;-83
2022/01/29 06:41:45;;;;;;;37.92;19.05;;;9.30;99.90;;;;;;7334582;19;115102;-84
2022/01/29 06:44:12;;;;;;;30.35;18.23;;;9.30;99.90;;;;;;7341591;19;112350;-84
2022/01/29 06:46:39;;;;;;;32.63;17.65;;;9.30;99.90;;;;;;7336823;19;115582;-84
2022/01/29 06:49:06;;;;;;;35.65;18.10;;;9.30;99.90;;;;;;7335777;19;112214;-84
2022/01/29 06:51:33;;;;;;;30.25;17.92;;;9.30;99.90;;;;;;7333962;19;112427;-84
2022/01/29 06:54:00;;;;;;;30.02;17.20;;;9.30;99.90;;;;;;7336328;19;113039;-84
2022/01/29 06:56:27;;;;;;;29.33;17.67;;;9.40;99.90;;;;;;7335018;19;112805;-84
2022/01/29 06:58:54;;;;;;;31.10;18.30;;;9.40;99.90;;;;;;7338570;19;112620;-84
2022/01/29 07:01:38;;;;;;;29.73;17.98;;;9.40;99.90;;;;;;7335862;19;116312;-84
2022/01/29 07:04:05;;;;;;;30.23;17.33;;;9.40;99.90;;;;;;7334793;19;111345;-84
2022/01/29 07:06:32;;;;;;;28.20;17.17;;;9.40;99.90;;;;;;7340064;19;112455;-84
2022/01/29 07:08:59;;;;;;;28.50;17.00;;;9.40;99.90;;;;;;7335811;19;114440;-84
2022/01/29 07:11:26;;;;;;;23.77;15.82;;;9.50;99.90;;;;;;7342386;19;112223;-83
2022/01/29 07:14:02;;;;;;;25.17;16.23;;;9.50;99.90;;;;;;7342051;19;112820;-83
2022/01/29 07:16:30;;;;;;;22.92;15.50;;;9.50;99.90;;;;;;7343314;19;112102;-83
2022/01/29 07:18:58;;;;;;;28.08;16.08;;;9.50;99.90;;;;;;7339250;19;112460;-83
2022/01/29 07:21:25;;;;;;;27.65;16.23;;;9.50;99.90;;;;;;7342284;19;113162;-84
2022/01/29 07:23:52;;;;;;;23.80;16.05;;;9.50;99.90;;;;;;7337298;19;115118;-83
2022/01/29 07:26:19;;;;;;;27.55;16.00;;;9.60;99.90;;;;;;7346381;19;115926;-84
2022/01/29 07:28:46;;;;;;;25.17;15.70;;;9.60;99.90;;;;;;7341624;19;114894;-83
2022/01/29 07:31:18;;;;;;;23.15;15.52;;;9.60;99.90;;;;;;7338975;19;112766;-84
2022/01/29 07:33:45;;;;;;;23.75;15.55;;;9.60;99.90;;;;;;7340741;19;112993;-83
2022/01/29 07:36:12;;;;;;;22.95;15.77;;;9.60;99.90;;;;;;7340079;19;112230;-83
2022/01/29 07:38:39;;;;;;;23.83;15.25;;;9.70;99.90;;;;;;7343307;19;114520;-84
2022/01/29 07:41:07;;;;;;;22.10;15.27;;;9.60;99.90;;;;;;7337558;19;112830;-84
2022/01/29 07:43:34;;;;;;;25.67;15.70;;;9.70;99.90;;;;;;7343264;19;111498;-83
2022/01/29 07:46:01;;;;;;;25.13;14.70;;;9.70;99.90;;;;;;7341137;19;113521;-84
2022/01/29 07:48:28;;;;;;;24.75;15.02;;;9.80;99.90;;;;;;7349394;19;111033;-84
2022/01/29 07:50:55;;;;;;;22.95;14.10;;;9.80;99.90;;;;;;7336659;19;113092;-83
2022/01/29 07:53:22;;;;;;;28.05;15.63;;;9.90;99.90;;;;;;7338763;19;112993;-83
2022/01/29 07:55:49;;;;;;;21.85;14.63;;;9.80;99.90;;;;;;7339136;19;111562;-81
2022/01/29 07:58:16;;;;;;;23.92;14.98;;;9.90;99.90;;;;;;7338537;19;110669;-81
2022/01/29 08:00:43;;;;;;;20.88;15.57;;;9.80;99.90;;;;;;7341084;19;112694;-83
2022/01/29 08:03:10;;;;;;;25.48;15.35;;;9.80;99.90;;;;;;7336461;19;112339;-82
2022/01/29 08:05:37;;;;;;;25.83;15.35;;;9.70;99.90;;;;;;7342674;19;113644;-83
2022/01/29 08:08:04;;;;;;;;;;;9.70;99.90;;;;;;7341152;19;112810;-81
2022/01/29 08:10:32;;;;;;;25.40;14.40;;;9.70;99.90;;;;;;7353193;19;114547;-82
2022/01/29 08:12:59;;;;;;;26.70;14.88;;;9.80;99.90;;;;;;7338285;19;114977;-81
2022/01/29 08:15:26;;;;;;;22.48;14.95;;;9.80;99.90;;;;;;7341118;19;110530;-81
2022/01/29 08:17:53;;;;;;;;;;;9.90;99.90;;;;;;7343232;19;112189;-81
2022/01/29 08:20:20;;;;;;;22.35;14.38;;;9.80;99.90;;;;;;7343206;19;110461;-82
2022/01/29 08:22:47;;;;;;;28.20;15.88;;;9.90;99.90;;;;;;7343004;19;111859;-83
2022/01/29 08:25:15;;;;;;;19.17;13.40;;;9.90;99.90;;;;;;7340579;19;112650;-82
2022/01/29 08:27:42;;;;;;;25.95;14.05;;;10.00;99.90;;;;;;7343357;19;112856;-82
2022/01/29 08:30:09;;;;;;;21.20;14.20;;;10.00;99.90;;;;;;7338446;19;112390;-82
2022/01/29 08:32:41;;;;;;;20.90;13.85;;;10.00;99.90;;;;;;7346563;19;110663;-83
2022/01/29 08:35:14;;;;;;;20.60;13.85;;;10.10;99.90;;;;;;7338592;19;112276;-83
2022/01/29 08:37:41;;;;;;;20.75;13.73;;;10.10;99.90;;;;;;7340220;19;112821;-81
2022/01/29 08:40:10;;;;;;;24.85;14.10;;;10.10;99.90;;;;;;7341941;19;112287;-83
2022/01/29 08:42:38;;;;;;;20.65;14.13;;;10.10;99.90;;;;;;7337406;19;112007;-82
2022/01/29 08:45:06;;;;;;;21.25;14.23;;;10.10;99.90;;;;;;7340819;19;112230;-83
2022/01/29 08:47:37;;;;;;;25.42;14.75;;;10.10;99.90;;;;;;7338828;19;112475;-82
2022/01/29 08:50:05;;;;;;;26.30;14.35;;;10.10;99.90;;;;;;7341337;19;112174;-83
2022/01/29 08:52:33;;;;;;;20.75;13.68;;;10.20;99.90;;;;;;7337629;19;113085;-82
2022/01/29 08:55:00;;;;;;;23.83;13.98;;;10.20;99.90;;;;;;7343244;19;111626;-81
2022/01/29 08:57:27;;;;;;;24.83;14.00;;;10.20;99.90;;;;;;7341654;19;110767;-83
2022/01/29 08:59:54;;;;;;;21.83;14.10;;;10.20;99.90;;;;;;7336626;19;112511;-83
2022/01/29 09:02:21;;;;;;;18.85;13.75;;;10.20;99.90;;;;;;7339328;19;110645;-82
2022/01/29 09:04:57;;;;;;;20.88;14.00;;;10.30;99.90;;;;;;7336294;19;112609;-83
2022/01/29 09:07:26;;;;;;;20.75;12.82;;;10.20;99.90;;;;;;7340791;19;115591;-82
2022/01/29 09:09:54;;;;;;;18.60;12.85;;;10.30;99.90;;;;;;7336704;19;111172;-83
2022/01/29 09:12:22;;;;;;;18.60;13.10;;;10.30;99.90;;;;;;7338375;19;113535;-83
2022/01/29 09:14:49;;;;;;;17.95;13.68;;;10.20;99.90;;;;;;7339159;19;112607;-82
2022/01/29 09:17:15;;;;;;;21.23;13.65;;;10.30;99.90;;;;;;7344200;19;112217;-82
2022/01/29 09:19:43;;;;;;;18.60;13.23;;;10.30;99.90;;;;;;7339912;19;113739;-83
2022/01/29 09:22:09;;;;;;;22.33;13.88;;;10.30;99.90;;;;;;7337721;19;112191;-82
2022/01/29 09:24:37;;;;;;;22.75;14.52;;;10.30;99.90;;;;;;7341767;19;112486;-83
2022/01/29 09:27:04;;;;;;;19.17;13.73;;;10.40;99.90;;;;;;7336480;19;111992;-83
2022/01/29 09:29:32;;;;;;;23.80;13.77;;;10.30;99.90;;;;;;7340364;19;112050;-82
2022/01/29 09:31:59;;;;;;;21.35;13.88;;;10.40;99.90;;;;;;7335887;19;111345;-83
2022/01/29 09:34:26;;;;;;;24.70;13.20;;;10.40;99.90;;;;;;7337790;19;112879;-82
2022/01/29 09:36:53;;;;;;;21.70;12.73;;;10.40;99.90;;;;;;7347168;19;112207;-82
2022/01/29 09:39:19;;;;;;;18.75;13.02;;;10.40;99.90;;;;;;7336922;19;114903;-82
2022/01/29 09:41:46;;;;;;;24.50;12.70;;;10.40;99.90;;;;;;7339497;19;113046;-83
2022/01/29 09:44:14;;;;;;;23.50;13.60;;;10.40;99.90;;;;;;7335340;19;112915;-83
2022/01/29 09:46:44;;;;;;;19.92;12.98;;;10.40;99.90;;;;;;7337580;19;112881;-84
2022/01/29 09:49:12;;;;;;;22.95;12.68;;;10.40;99.90;;;;;;7333823;19;111928;-83
2022/01/29 09:51:40;;;;;;;19.70;12.15;;;10.40;99.90;;;;;;7339480;19;111022;-83
2022/01/29 09:54:07;;;;;;;19.15;12.40;;;10.50;99.90;;;;;;7334309;19;113568;-82
2022/01/29 09:56:34;;;;;;;18.00;12.07;;;10.50;99.90;;;;;;7337830;19;111848;-82
2022/01/29 09:59:01;;;;;;;20.70;12.68;;;10.50;99.90;;;;;;7338512;19;116035;-82
2022/01/29 10:01:29;;;;;;;18.60;11.75;;;10.50;99.90;;;;;;7335040;19;114170;-83
2022/01/29 10:04:04;;;;;;;18.17;11.07;;;10.60;99.90;;;;;;7340067;19;112128;-83
2022/01/29 10:06:32;;;;;;;17.23;10.63;;;10.60;99.90;;;;;;7335417;19;116862;-82
2022/01/29 10:09:01;;;;;;;15.43;10.73;;;10.60;99.90;;;;;;7339990;19;111944;-82
2022/01/29 10:11:30;;;;;;;12.65;9.60;;;10.60;99.90;;;;;;7338364;19;115300;-80
2022/01/29 10:14:00;;;;;;;14.05;9.70;;;10.60;99.90;;;;;;7341687;19;111463;-83
2022/01/29 10:16:31;;;;;;;13.15;10.18;;;10.70;99.90;;;;;;7336206;19;117567;-84
2022/01/29 10:19:04;;;;;;;16.48;9.02;;;10.80;99.90;;;;;;7336785;19;110815;-82
2022/01/29 10:21:47;;;;;;;14.55;9.45;;;10.70;99.90;;;;;;7344284;19;111214;-83
2022/01/29 10:24:19;;;;;;;8.63;7.43;;;10.70;99.90;;;;;;7336761;19;109301;-83
2022/01/29 10:26:49;;;;;;;11.30;8.30;;;10.80;99.90;;;;;;7341254;19;113695;-81
2022/01/29 10:29:18;;;;;;;12.02;7.38;;;10.80;99.90;;;;;;7337647;19;112952;-82
2022/01/29 10:31:47;;;;;;;8.77;6.78;;;10.80;99.90;;;;;;7339192;19;111371;-81
2022/01/29 10:34:19;;;;;;;11.80;7.22;;;10.90;99.90;;;;;;7336506;19;110557;-84
2022/01/29 10:37:12;;;;;;;9.85;6.57;;;10.90;99.90;;;;;;7338349;19;116125;-83
2022/01/29 10:39:42;;;;;;;10.75;5.80;;;10.90;99.90;;;;;;7339646;19;111883;-83
2022/01/29 10:42:22;;;;;;;8.68;4.82;;;10.90;99.90;;;;;;7338248;19;111121;-82
2022/01/29 10:44:55;;;;;;;12.50;5.85;;;11.00;99.90;;;;;;7349539;19;112879;-81
2022/01/29 10:47:22;;;;;;;7.93;4.93;;;11.10;99.90;;;;;;7343689;19;114588;-81
2022/01/29 10:50:03;;;;;;;7.68;5.15;;;11.10;99.90;;;;;;7340668;19;110577;-82
2022/01/29 10:52:32;;;;;;;6.85;4.97;;;11.10;99.90;;;;;;7345824;19;113012;-82
2022/01/29 10:55:07;;;;;;;5.90;3.95;;;11.20;99.90;;;;;;7344521;19;111620;-83
2022/01/29 10:57:38;;;;;;;6.50;4.30;;;11.30;99.90;;;;;;7347731;19;112283;-83
2022/01/29 11:00:23;;;;;;;7.18;4.47;;;11.30;99.90;;;;;;7342603;19;112884;-83
2022/01/29 11:02:53;;;;;;;4.93;3.63;;;11.40;99.90;;;;;;7346329;19;114545;-83
2022/01/29 11:05:27;;;;;;;6.15;3.70;;;11.30;99.90;;;;;;7341897;19;112773;-84
2022/01/29 11:07:56;;;;;;;6.57;3.17;;;11.40;99.90;;;;;;7352111;19;109679;-82
2022/01/29 11:10:25;;;;;;;5.93;3.40;;;11.40;99.90;;;;;;7343592;19;111946;-82
2022/01/29 11:12:53;;;;;;;6.15;3.05;;;11.40;99.90;;;;;;7342578;19;109414;-83
2022/01/29 11:15:22;;;;;;;3.83;2.25;;;11.40;99.90;;;;;;7343897;19;115255;-83
2022/01/29 11:17:49;;;;;;;5.82;2.78;;;11.40;99.90;;;;;;7343515;19;112013;-81
2022/01/29 12:02:55;;;;;;;2.85;1.60;;;11.90;99.90;;;;;;7333303;19;113164;-81
2022/01/29 12:06:32;;;;;;;3.40;2.00;;;11.90;99.90;;;;;;7333407;19;111311;-81
2022/01/29 12:09:10;;;;;;;3.80;1.88;;;11.90;99.90;;;;;;7332272;19;111195;-82
2022/01/29 12:11:39;;;;;;;4.97;1.98;;;11.80;99.90;;;;;;7338116;19;106760;-82
2022/01/29 12:14:12;;;;;;;3.90;1.77;;;11.90;99.90;;;;;;7337334;19;108132;-81
2022/01/29 12:16:59;;;;;;;2.80;1.70;;;11.90;99.90;;;;;;7332776;19;111731;-82
2022/01/29 12:19:46;;;;;;;2.47;1.75;;;12.00;99.90;;;;;;7331650;19;106805;-81
2022/01/29 12:22:16;;;;;;;4.23;2.33;;;12.00;99.90;;;;;;7335774;19;107161;-84
2022/01/29 12:24:58;;;;;;;4.30;1.80;;;12.00;99.90;;;;;;7333880;19;112110;-81
2022/01/29 12:27:44;;;;;;;4.47;2.22;;;11.90;99.90;;;;;;7328192;19;107977;-81
2022/01/29 12:30:14;;;;;;;5.70;2.17;;;12.00;99.90;;;;;;7335443;19;110998;-81
2022/01/29 12:33:01;;;;;;;4.22;2.10;;;12.10;99.90;;;;;;7335968;19;107309;-81
2022/01/29 12:35:54;;;;;;;2.67;1.93;;;12.10;99.90;;;;;;7332604;19;109219;-81
2022/01/29 12:38:29;;;;;;;3.92;1.80;;;12.10;99.90;;;;;;7334811;19;108195;-81
2022/01/29 12:41:04;;;;;;;3.35;1.95;;;12.00;99.90;;;;;;7338415;19;106621;-81
2022/01/29 12:44:02;;;;;;;6.30;2.10;;;12.00;99.90;;;;;;7332684;19;108956;-81
2022/01/29 12:46:30;;;;;;;4.70;1.70;;;12.10;99.90;;;;;;7333457;19;112299;-81
2022/01/29 12:49:01;;;;;;;3.95;1.88;;;12.10;99.90;;;;;;7336341;19;107919;-81
2022/01/29 12:51:29;;;;;;;5.53;1.95;;;12.10;99.90;;;;;;7339819;19;109625;-81
2022/01/29 12:53:58;;;;;;;7.30;1.90;;;12.20;99.90;;;;;;7335145;19;106490;-80
2022/01/29 12:56:31;;;;;;;6.10;1.92;;;12.10;99.90;;;;;;7337257;19;108719;-81
2022/01/29 12:58:59;;;;;;;5.43;1.85;;;12.20;99.90;;;;;;7330453;19;109504;-80
2022/01/29 13:01:27;;;;;;;4.75;2.10;;;12.30;99.90;;;;;;7334985;19;106544;-81
2022/01/29 13:04:02;;;;;;;7.38;2.20;;;12.30;99.90;;;;;;7333298;19;108514;-81
2022/01/29 13:06:30;;;;;;;4.22;1.95;;;12.40;99.90;;;;;;7331363;19;112824;-81
2022/01/29 13:09:15;;;;;;;7.18;1.77;;;12.40;99.90;;;;;;7335918;19;106602;-81
2022/01/29 13:11:43;;;;;;;6.65;2.22;;;12.40;99.90;;;;;;7332359;19;109155;-82
2022/01/29 13:17:13;;;;;;;7.38;2.55;;;12.40;99.90;;;;;;7305046;19;113439;-81
2022/01/29 14:01:39;;;;;;;6.30;2.35;;;13.20;99.90;;;;;;7364529;19;108874;-79
2022/01/29 14:04:38;;;;;;;5.45;2.13;;;13.20;99.90;;;;;;7359093;19;108127;-79
2022/01/29 14:07:12;;;;;;;7.38;2.33;;;13.20;99.90;;;;;;7366244;19;108370;-79
2022/01/29 14:09:56;;;;;;;7.88;2.03;;;13.10;99.90;;;;;;7366399;19;109454;-79
2022/01/29 14:12:26;;;;;;;9.05;2.38;;;13.10;99.90;;;;;;7365145;19;108169;-76
2022/01/29 14:14:58;;;;;;;7.28;2.28;;;13.00;99.90;;;;;;7366703;19;108335;-76
2022/01/29 14:17:35;;;;;;;3.80;1.75;;;13.00;99.90;;;;;;7363647;19;109184;-76
2022/01/29 14:22:45;;;;;;;6.03;2.17;;;13.00;99.90;;;;;;7368887;19;109710;-83
2022/01/29 14:25:21;;;;;;;5.97;2.08;;;13.00;99.90;;;;;;7358674;19;112522;-82